sensor_id;sensor_type;location;lat;lon;timestamp;pressure;altitude;pressure_sealevel;temperature;humidity
59787;BME280;45672;51.612;5.536;2023-12-20T00:01:00;101417.91;;;5.67;100.00
59787;BME280;45672;51.612;5.536;2023-12-20T00:03:26;101400.84;;;5.60;100.00
59787;BME280;45672;51.612;5.536;2023-12-20T00:05:51;101413.91;;;5.62;100.00
59787;BME280;45672;51.612;5.536;2023-12-20T00:08:17;101408.22;;;5.55;100.00
59787;BME280;45672;51.612;5.536;2023-12-20T00:10:43;101400.75;;;5.49;100.00
59787;BME280;45672;51.612;5.536;2023-12-20T00:13:09;101409.94;;;5.43;100.00
59787;BME280;45672;51.612;5.536;2023-12-20T00:15:34;101427.25;;;5.47;100.00
59787;BME280;45672;51.612;5.536;2023-12-20T00:17:59;101425.78;;;5.43;100.00
59787;BME280;45672;51.612;5.536;2023-12-20T00:20:26;101430.41;;;5.40;100.00
59787;BME280;45672;51.612;5.536;2023-12-20T00:22:51;101432.53;;;5.34;100.00
59787;BME280;45672;51.612;5.536;2023-12-20T00:25:16;101428.22;;;5.33;100.00
59787;BME280;45672;51.612;5.536;2023-12-20T00:27:43;101416.06;;;5.31;100.00
59787;BME280;45672;51.612;5.536;2023-12-20T00:30:08;101416.59;;;5.36;100.00
59787;BME280;45672;51.612;5.536;2023-12-20T00:32:35;101412.47;;;5.32;100.00
59787;BME280;45672;51.612;5.536;2023-12-20T00:35:01;101416.59;;;5.36;100.00
59787;BME280;45672;51.612;5.536;2023-12-20T00:37:26;101412.47;;;5.32;100.00
59787;BME280;45672;51.612;5.536;2023-12-20T00:39:51;101391.16;;;5.22;100.00
59787;BME280;45672;51.612;5.536;2023-12-20T00:42:17;101390.75;;;5.15;100.00
59787;BME280;45672;51.612;5.536;2023-12-20T00:44:42;101399.59;;;5.14;100.00
59787;BME280;45672;51.612;5.536;2023-12-20T00:47:07;101402.56;;;5.10;100.00
59787;BME280;45672;51.612;5.536;2023-12-20T00:49:32;101406.34;;;5.06;100.00
59787;BME280;45672;51.612;5.536;2023-12-20T00:51:58;101400.69;;;4.99;100.00
59787;BME280;45672;51.612;5.536;2023-12-20T00:54:23;101391.56;;;4.90;100.00
59787;BME280;45672;51.612;5.536;2023-12-20T00:56:48;101401.28;;;4.90;100.00
59787;BME280;45672;51.612;5.536;2023-12-20T00:59:13;101402.34;;;4.87;100.00
59787;BME280;45672;51.612;5.536;2023-12-20T01:01:39;101392.22;;;4.81;100.00
59787;BME280;45672;51.612;5.536;2023-12-20T01:04:05;101406.13;;;4.83;100.00
59787;BME280;45672;51.612;5.536;2023-12-20T01:06:30;101403.50;;;4.83;100.00
59787;BME280;45672;51.612;5.536;2023-12-20T01:08:55;101400.22;;;4.79;100.00
59787;BME280;45672;51.612;5.536;2023-12-20T01:11:21;101387.66;;;4.70;100.00
59787;BME280;45672;51.612;5.536;2023-12-20T01:13:47;101411.16;;;4.73;100.00
59787;BME280;45672;51.612;5.536;2023-12-20T01:16:12;101415.28;;;4.77;100.00
59787;BME280;45672;51.612;5.536;2023-12-20T01:18:37;101408.63;;;4.72;100.00
59787;BME280;45672;51.612;5.536;2023-12-20T01:21:04;101399.06;;;4.71;100.00
59787;BME280;45672;51.612;5.536;2023-12-20T01:23:29;101396.44;;;4.71;100.00
59787;BME280;45672;51.612;5.536;2023-12-20T01:25:55;101406.97;;;4.71;100.00
59787;BME280;45672;51.612;5.536;2023-12-20T01:28:20;101408.75;;;4.70;100.00
59787;BME280;45672;51.612;5.536;2023-12-20T01:30:45;101405.28;;;4.70;100.00
59787;BME280;45672;51.612;5.536;2023-12-20T01:33:11;101405.28;;;4.70;100.00
59787;BME280;45672;51.612;5.536;2023-12-20T01:35:36;101395.88;;;4.65;100.00
59787;BME280;45672;51.612;5.536;2023-12-20T01:38:02;101404.84;;;4.63;100.00
59787;BME280;45672;51.612;5.536;2023-12-20T01:40:27;101417.19;;;4.62;100.00
59787;BME280;45672;51.612;5.536;2023-12-20T01:43:07;101404.72;;;4.64;100.00
59787;BME280;45672;51.612;5.536;2023-12-20T01:45:33;101406.53;;;4.64;100.00
59787;BME280;45672;51.612;5.536;2023-12-20T01:47:59;101391.13;;;4.58;100.00
59787;BME280;45672;51.612;5.536;2023-12-20T01:50:25;101400.59;;;4.60;100.00
59787;BME280;45672;51.612;5.536;2023-12-20T01:52:52;101396.50;;;4.56;100.00
59787;BME280;45672;51.612;5.536;2023-12-20T01:55:22;101405.56;;;4.52;100.00
59787;BME280;45672;51.612;5.536;2023-12-20T01:57:48;101407.53;;;4.48;100.00
59787;BME280;45672;51.612;5.536;2023-12-20T02:00:14;101407.75;;;4.45;100.00
59787;BME280;45672;51.612;5.536;2023-12-20T02:02:40;101406.91;;;4.45;100.00
59787;BME280;45672;51.612;5.536;2023-12-20T02:05:07;101398.25;;;4.43;100.00
59787;BME280;45672;51.612;5.536;2023-12-20T02:07:32;101390.47;;;4.41;100.00
59787;BME280;45672;51.612;5.536;2023-12-20T02:09:59;101398.78;;;4.35;100.00
59787;BME280;45672;51.612;5.536;2023-12-20T02:12:25;101403.28;;;4.33;100.00
59787;BME280;45672;51.612;5.536;2023-12-20T02:14:50;101406.47;;;4.38;100.00
59787;BME280;45672;51.612;5.536;2023-12-20T02:17:16;101409.94;;;4.39;100.00
59787;BME280;45672;51.612;5.536;2023-12-20T02:19:41;101413.50;;;4.38;100.00
59787;BME280;45672;51.612;5.536;2023-12-20T02:22:10;101400.03;;;4.29;100.00
59787;BME280;45672;51.612;5.536;2023-12-20T02:24:36;101402.75;;;4.28;100.00
59787;BME280;45672;51.612;5.536;2023-12-20T02:27:02;101412.22;;;4.30;100.00
59787;BME280;45672;51.612;5.536;2023-12-20T02:29:27;101412.44;;;4.27;100.00
59787;BME280;45672;51.612;5.536;2023-12-20T02:31:53;101413.38;;;4.26;100.00
59787;BME280;45672;51.612;5.536;2023-12-20T02:34:18;101402.09;;;4.24;100.00
59787;BME280;45672;51.612;5.536;2023-12-20T02:36:44;101415.28;;;4.24;100.00
59787;BME280;45672;51.612;5.536;2023-12-20T02:39:09;101402.00;;;4.26;100.00
59787;BME280;45672;51.612;5.536;2023-12-20T02:41:34;101405.19;;;4.31;100.00
59787;BME280;45672;51.612;5.536;2023-12-20T02:44:01;101403.19;;;4.35;100.00
59787;BME280;45672;51.612;5.536;2023-12-20T02:46:26;101404.03;;;4.35;100.00
59787;BME280;45672;51.612;5.536;2023-12-20T02:48:52;101392.22;;;4.28;100.00
59787;BME280;45672;51.612;5.536;2023-12-20T02:51:17;101400.75;;;4.31;100.00
59787;BME280;45672;51.612;5.536;2023-12-20T02:53:42;101405.91;;;4.33;100.00
59787;BME280;45672;51.612;5.536;2023-12-20T02:56:09;101394.09;;;4.26;100.00
59787;BME280;45672;51.612;5.536;2023-12-20T02:58:35;101405.19;;;4.31;100.00
59787;BME280;45672;51.612;5.536;2023-12-20T03:01:00;101405.19;;;4.31;100.00
59787;BME280;45672;51.612;5.536;2023-12-20T03:03:25;101403.28;;;4.33;100.00
59787;BME280;45672;51.612;5.536;2023-12-20T03:05:51;101390.63;;;4.25;100.00
59787;BME280;45672;51.612;5.536;2023-12-20T03:08:16;101387.88;;;4.27;100.00
59787;BME280;45672;51.612;5.536;2023-12-20T03:10:42;101393.78;;;4.30;100.00
59787;BME280;45672;51.612;5.536;2023-12-20T03:13:07;101384.38;;;4.26;100.00
59787;BME280;45672;51.612;5.536;2023-12-20T03:15:32;101381.47;;;4.31;100.00
59787;BME280;45672;51.612;5.536;2023-12-20T03:17:58;101374.31;;;4.33;100.00
59787;BME280;45672;51.612;5.536;2023-12-20T03:20:24;101387.56;;;4.31;100.00
59787;BME280;45672;51.612;5.536;2023-12-20T03:22:51;101368.69;;;4.25;100.00
59787;BME280;45672;51.612;5.536;2023-12-20T03:25:16;101370.38;;;4.26;100.00
59787;BME280;45672;51.612;5.536;2023-12-20T03:27:42;101376.94;;;4.33;100.00
59787;BME280;45672;51.612;5.536;2023-12-20T03:30:07;101370.53;;;4.37;100.00
59787;BME280;45672;51.612;5.536;2023-12-20T03:32:33;101371.34;;;4.38;100.00
59787;BME280;45672;51.612;5.536;2023-12-20T03:34:58;101378.22;;;4.40;100.00
59787;BME280;45672;51.612;5.536;2023-12-20T03:37:24;101383.81;;;4.36;100.00
59787;BME280;45672;51.612;5.536;2023-12-20T03:39:49;101380.34;;;4.35;100.00
59787;BME280;45672;51.612;5.536;2023-12-20T03:42:15;101371.56;;;4.35;100.00
59787;BME280;45672;51.612;5.536;2023-12-20T03:44:40;101363.47;;;4.38;100.00
59787;BME280;45672;51.612;5.536;2023-12-20T03:47:06;101363.69;;;4.47;100.00
59787;BME280;45672;51.612;5.536;2023-12-20T03:49:32;101347.97;;;4.46;100.00
59787;BME280;45672;51.612;5.536;2023-12-20T03:51:57;101353.69;;;4.53;100.00
59787;BME280;45672;51.612;5.536;2023-12-20T03:54:22;101350.41;;;4.49;100.00
59787;BME280;45672;51.612;5.536;2023-12-20T03:56:47;101352.53;;;4.57;100.00
59787;BME280;45672;51.612;5.536;2023-12-20T03:59:13;101358.34;;;4.62;100.00
59787;BME280;45672;51.612;5.536;2023-12-20T04:01:43;101355.81;;;4.60;100.00
59787;BME280;45672;51.612;5.536;2023-12-20T04:04:08;101367.72;;;4.66;100.00
59787;BME280;45672;51.612;5.536;2023-12-20T04:06:33;101361.63;;;4.65;100.00
59787;BME280;45672;51.612;5.536;2023-12-20T04:08:59;101365.94;;;4.66;100.00
59787;BME280;45672;51.612;5.536;2023-12-20T04:11:24;101370.91;;;4.71;100.00
59787;BME280;45672;51.612;5.536;2023-12-20T04:13:50;101373.31;;;4.74;100.00
59787;BME280;45672;51.612;5.536;2023-12-20T04:16:15;101376.06;;;4.73;100.00
59787;BME280;45672;51.612;5.536;2023-12-20T04:18:40;101380.91;;;4.79;100.00
59787;BME280;45672;51.612;5.536;2023-12-20T04:21:06;101377.66;;;4.75;100.00
59787;BME280;45672;51.612;5.536;2023-12-20T04:23:32;101378.09;;;4.82;100.00
59787;BME280;45672;51.612;5.536;2023-12-20T04:25:57;101378.00;;;4.83;100.00
59787;BME280;45672;51.612;5.536;2023-12-20T04:28:22;101375.97;;;4.87;100.00
59787;BME280;45672;51.612;5.536;2023-12-20T04:30:48;101375.75;;;4.90;100.00
59787;BME280;45672;51.612;5.536;2023-12-20T04:33:13;101377.22;;;4.94;100.00
59787;BME280;45672;51.612;5.536;2023-12-20T04:35:38;101357.84;;;4.95;100.00
59787;BME280;45672;51.612;5.536;2023-12-20T04:38:06;101375.97;;;5.00;100.00
59787;BME280;45672;51.612;5.536;2023-12-20T04:40:31;101367.34;;;4.98;100.00
59787;BME280;45672;51.612;5.536;2023-12-20T04:42:56;101370.41;;;5.05;100.00
59787;BME280;45672;51.612;5.536;2023-12-20T04:45:22;101358.03;;;5.05;100.00
59787;BME280;45672;51.612;5.536;2023-12-20T04:47:48;101368.28;;;5.10;100.00
59787;BME280;45672;51.612;5.536;2023-12-20T04:50:14;101364.16;;;5.06;100.00
59787;BME280;45672;51.612;5.536;2023-12-20T04:52:39;101371.84;;;5.09;100.00
59787;BME280;45672;51.612;5.536;2023-12-20T04:55:05;101375.34;;;5.09;100.00
59787;BME280;45672;51.612;5.536;2023-12-20T04:57:30;101379.69;;;5.10;100.00
59787;BME280;45672;51.612;5.536;2023-12-20T04:59:56;101375.25;;;5.11;100.00
59787;BME280;45672;51.612;5.536;2023-12-20T05:02:21;101374.09;;;5.15;100.00
59787;BME280;45672;51.612;5.536;2023-12-20T05:04:46;101370.50;;;5.16;100.00
59787;BME280;45672;51.612;5.536;2023-12-20T05:07:12;101361.09;;;5.12;100.00
59787;BME280;45672;51.612;5.536;2023-12-20T05:09:37;101370.28;;;5.19;100.00
59787;BME280;45672;51.612;5.536;2023-12-20T05:12:04;101362.38;;;5.19;100.00
59787;BME280;45672;51.612;5.536;2023-12-20T05:14:29;101362.38;;;5.19;100.00
59787;BME280;45672;51.612;5.536;2023-12-20T05:16:55;101354.44;;;5.19;100.00
59787;BME280;45672;51.612;5.536;2023-12-20T05:19:21;101351.59;;;5.22;100.00
59787;BME280;45672;51.612;5.536;2023-12-20T05:21:47;101354.75;;;5.27;100.00
59787;BME280;45672;51.612;5.536;2023-12-20T05:24:12;101338.84;;;5.16;100.00
59787;BME280;45672;51.612;5.536;2023-12-20T05:26:37;101349.38;;;5.29;100.00
59787;BME280;45672;51.612;5.536;2023-12-20T05:29:02;101353.47;;;5.33;100.00
59787;BME280;45672;51.612;5.536;2023-12-20T05:31:28;101349.28;;;5.30;100.00
59787;BME280;45672;51.612;5.536;2023-12-20T05:33:53;101348.19;;;5.33;100.00
59787;BME280;45672;51.612;5.536;2023-12-20T05:36:19;101331.97;;;5.26;100.00
59787;BME280;45672;51.612;5.536;2023-12-20T05:38:45;101346.28;;;5.35;100.00
59787;BME280;45672;51.612;5.536;2023-12-20T05:41:10;101344.94;;;5.29;100.00
59787;BME280;45672;51.612;5.536;2023-12-20T05:43:35;101350.22;;;5.29;100.00
59787;BME280;45672;51.612;5.536;2023-12-20T05:46:01;101355.38;;;5.31;100.00
59787;BME280;45672;51.612;5.536;2023-12-20T05:48:26;101361.59;;;5.30;100.00
59787;BME280;45672;51.612;5.536;2023-12-20T05:50:52;101360.75;;;5.29;100.00
59787;BME280;45672;51.612;5.536;2023-12-20T05:53:18;101359.50;;;5.22;100.00
59787;BME280;45672;51.612;5.536;2023-12-20T05:55:43;101364.56;;;5.25;100.00
59787;BME280;45672;51.612;5.536;2023-12-20T05:58:08;101363.63;;;5.26;100.00
59787;BME280;45672;51.612;5.536;2023-12-20T06:00:33;101363.09;;;5.21;100.00
59787;BME280;45672;51.612;5.536;2023-12-20T06:02:59;101379.84;;;5.20;100.00
59787;BME280;45672;51.612;5.536;2023-12-20T06:05:24;101378.31;;;5.17;100.00
59787;BME280;45672;51.612;5.536;2023-12-20T06:07:50;101380.19;;;5.15;100.00
59787;BME280;45672;51.612;5.536;2023-12-20T06:10:16;101368.81;;;5.15;100.00
59787;BME280;45672;51.612;5.536;2023-12-20T06:12:41;101375.97;;;5.13;100.00
59787;BME280;45672;51.612;5.536;2023-12-20T06:15:07;101380.09;;;5.17;100.00
59787;BME280;45672;51.612;5.536;2023-12-20T06:17:32;101372.16;;;5.17;100.00
59787;BME280;45672;51.612;5.536;2023-12-20T06:19:58;101366.28;;;5.13;100.00
59787;BME280;45672;51.612;5.536;2023-12-20T06:22:23;101368.28;;;5.10;100.00
59787;BME280;45672;51.612;5.536;2023-12-20T06:24:48;101375.25;;;5.11;100.00
59787;BME280;45672;51.612;5.536;2023-12-20T06:27:14;101368.38;;;5.08;100.00
59787;BME280;45672;51.612;5.536;2023-12-20T06:29:39;101378.31;;;5.05;100.00
59787;BME280;45672;51.612;5.536;2023-12-20T06:32:06;101371.84;;;4.96;100.00
59787;BME280;45672;51.612;5.536;2023-12-20T06:34:31;101378.09;;;4.95;100.00
59787;BME280;45672;51.612;5.536;2023-12-20T06:36:57;101364.38;;;4.90;100.00
59787;BME280;45672;51.612;5.536;2023-12-20T06:39:22;101371.56;;;4.88;100.00
59787;BME280;45672;51.612;5.536;2023-12-20T06:41:47;101371.44;;;4.89;100.00
59787;BME280;45672;51.612;5.536;2023-12-20T06:44:13;101374.81;;;4.91;100.00
59787;BME280;45672;51.612;5.536;2023-12-20T06:46:38;101371.97;;;4.94;100.00
59787;BME280;45672;51.612;5.536;2023-12-20T06:49:03;101367.56;;;4.95;100.00
59787;BME280;45672;51.612;5.536;2023-12-20T06:51:29;101376.19;;;4.97;100.00
59787;BME280;45672;51.612;5.536;2023-12-20T06:53:56;101380.41;;;4.99;100.00
59787;BME280;45672;51.612;5.536;2023-12-20T06:56:21;101381.88;;;5.04;100.00
59787;BME280;45672;51.612;5.536;2023-12-20T06:58:46;101384.22;;;5.08;100.00
59787;BME280;45672;51.612;5.536;2023-12-20T07:01:16;101371.34;;;5.04;100.00
59787;BME280;45672;51.612;5.536;2023-12-20T07:03:41;101379.56;;;5.12;100.00
59787;BME280;45672;51.612;5.536;2023-12-20T07:06:07;101366.50;;;5.10;100.00
59787;BME280;45672;51.612;5.536;2023-12-20T07:08:33;101374.09;;;5.15;100.00
59787;BME280;45672;51.612;5.536;2023-12-20T07:10:58;101374.09;;;5.15;100.00
59787;BME280;45672;51.612;5.536;2023-12-20T07:13:24;101364.59;;;5.12;100.00
59787;BME280;45672;51.612;5.536;2023-12-20T07:15:49;101368.91;;;5.13;100.00
59787;BME280;45672;51.612;5.536;2023-12-20T07:18:15;101371.44;;;5.15;100.00
59787;BME280;45672;51.612;5.536;2023-12-20T07:20:40;101363.00;;;5.10;100.00
59787;BME280;45672;51.612;5.536;2023-12-20T07:23:05;101366.28;;;5.13;100.00
59787;BME280;45672;51.612;5.536;2023-12-20T07:25:31;101368.91;;;5.13;100.00
59787;BME280;45672;51.612;5.536;2023-12-20T07:27:59;101369.75;;;5.14;100.00
59787;BME280;45672;51.612;5.536;2023-12-20T07:30:24;101374.31;;;5.12;100.00
59787;BME280;45672;51.612;5.536;2023-12-20T07:32:50;101370.56;;;5.14;100.00
59787;BME280;45672;51.612;5.536;2023-12-20T07:35:16;101374.81;;;5.17;100.00
59787;BME280;45672;51.612;5.536;2023-12-20T07:37:41;101367.94;;;5.14;100.00
59787;BME280;45672;51.612;5.536;2023-12-20T07:40:07;101369.53;;;5.17;100.00
59787;BME280;45672;51.612;5.536;2023-12-20T07:42:33;101354.03;;;5.12;100.00
59787;BME280;45672;51.612;5.536;2023-12-20T07:44:58;101370.50;;;5.16;100.00
59787;BME280;45672;51.612;5.536;2023-12-20T07:47:23;101371.56;;;5.13;100.00
59787;BME280;45672;51.612;5.536;2023-12-20T07:49:50;101366.28;;;5.13;100.00
59787;BME280;45672;51.612;5.536;2023-12-20T07:52:17;101355.94;;;5.10;100.00
59787;BME280;45672;51.612;5.536;2023-12-20T07:54:43;101354.84;;;5.13;100.00
59787;BME280;45672;51.612;5.536;2023-12-20T07:57:10;101351.28;;;5.14;100.00
59787;BME280;45672;51.612;5.536;2023-12-20T07:59:35;101345.78;;;5.17;100.00
59787;BME280;45672;51.612;5.536;2023-12-20T08:02:01;101356.34;;;5.17;100.00
59787;BME280;45672;51.612;5.536;2023-12-20T08:04:26;101353.59;;;5.18;100.00
59787;BME280;45672;51.612;5.536;2023-12-20T08:06:51;101365.63;;;5.23;100.00
59787;BME280;45672;51.612;5.536;2023-12-20T08:09:17;101377.88;;;5.24;100.00
59787;BME280;45672;51.612;5.536;2023-12-20T08:11:46;101368.16;;;5.24;100.00
59787;BME280;45672;51.612;5.536;2023-12-20T08:14:11;101371.44;;;5.28;100.00
59787;BME280;45672;51.612;5.536;2023-12-20T08:16:37;101380.19;;;5.28;100.00
59787;BME280;45672;51.612;5.536;2023-12-20T08:19:02;101379.75;;;5.34;100.00
59787;BME280;45672;51.612;5.536;2023-12-20T08:21:27;101384.19;;;5.34;100.00
59787;BME280;45672;51.612;5.536;2023-12-20T08:23:52;101386.00;;;5.33;100.00
59787;BME280;45672;51.612;5.536;2023-12-20T08:26:19;101397.78;;;5.41;100.00
59787;BME280;45672;51.612;5.536;2023-12-20T08:28:46;101386.28;;;5.42;100.00
59787;BME280;45672;51.612;5.536;2023-12-20T08:31:15;101390.31;;;5.47;100.00
59787;BME280;45672;51.612;5.536;2023-12-20T08:33:41;101383.09;;;5.49;100.00
59787;BME280;45672;51.612;5.536;2023-12-20T08:36:07;101381.22;;;5.51;100.00
59787;BME280;45672;51.612;5.536;2023-12-20T08:38:32;101385.22;;;5.57;100.00
59787;BME280;45672;51.612;5.536;2023-12-20T08:40:57;101393.84;;;5.59;100.00
59787;BME280;45672;51.612;5.536;2023-12-20T08:43:23;101385.59;;;5.64;100.00
59787;BME280;45672;51.612;5.536;2023-12-20T08:45:48;101391.53;;;5.67;100.00
59787;BME280;45672;51.612;5.536;2023-12-20T08:48:13;101370.69;;;5.63;100.00
59787;BME280;45672;51.612;5.536;2023-12-20T08:50:39;101374.69;;;5.68;100.00
59787;BME280;45672;51.612;5.536;2023-12-20T08:53:04;101357.19;;;5.67;100.00
59787;BME280;45672;51.612;5.536;2023-12-20T08:55:29;101363.84;;;5.73;100.00
59787;BME280;45672;51.612;5.536;2023-12-20T08:57:56;101368.25;;;5.73;100.00
59787;BME280;45672;51.612;5.536;2023-12-20T09:00:21;101347.13;;;5.73;100.00
59787;BME280;45672;51.612;5.536;2023-12-20T09:02:49;101343.53;;;5.74;100.00
59787;BME280;45672;51.612;5.536;2023-12-20T09:05:14;101354.63;;;5.79;100.00
59787;BME280;45672;51.612;5.536;2023-12-20T09:07:40;101348.38;;;5.80;100.00
59787;BME280;45672;51.612;5.536;2023-12-20T09:10:06;101343.44;;;5.75;100.00
59787;BME280;45672;51.612;5.536;2023-12-20T09:12:31;101359.78;;;5.80;100.00
59787;BME280;45672;51.612;5.536;2023-12-20T09:14:56;101361.50;;;5.81;100.00
59787;BME280;45672;51.612;5.536;2023-12-20T09:17:22;101353.66;;;5.80;100.00
59787;BME280;45672;51.612;5.536;2023-12-20T09:19:48;101363.91;;;5.84;100.00
59787;BME280;45672;51.612;5.536;2023-12-20T09:22:13;101359.44;;;5.85;100.00
59787;BME280;45672;51.612;5.536;2023-12-20T09:24:39;101371.81;;;5.84;100.00
59787;BME280;45672;51.612;5.536;2023-12-20T09:27:07;101373.19;;;5.90;100.00
59787;BME280;45672;51.612;5.536;2023-12-20T09:29:32;101369.47;;;5.93;100.00
59787;BME280;45672;51.612;5.536;2023-12-20T09:31:58;101363.50;;;5.78;100.00
59787;BME280;45672;51.612;5.536;2023-12-20T09:34:24;101360.25;;;5.61;100.00
59787;BME280;45672;51.612;5.536;2023-12-20T09:36:51;101362.41;;;5.56;100.00
59787;BME280;45672;51.612;5.536;2023-12-20T09:39:18;101348.16;;;5.59;100.00
59787;BME280;45672;51.612;5.536;2023-12-20T09:44:28;101356.81;;;5.85;100.00
59787;BME280;45672;51.612;5.536;2023-12-20T09:46:55;101362.97;;;5.73;100.00
59787;BME280;45672;51.612;5.536;2023-12-20T09:49:21;101359.00;;;5.91;100.00
59787;BME280;45672;51.612;5.536;2023-12-20T09:51:47;101359.03;;;5.78;100.00
59787;BME280;45672;51.612;5.536;2023-12-20T09:54:17;101360.41;;;5.84;100.00
59787;BME280;45672;51.612;5.536;2023-12-20T09:56:43;101356.94;;;5.83;100.00
59787;BME280;45672;51.612;5.536;2023-12-20T09:59:08;101352.34;;;5.85;100.00
59787;BME280;45672;51.612;5.536;2023-12-20T10:01:34;101351.47;;;5.74;100.00
59787;BME280;45672;51.612;5.536;2023-12-20T10:04:00;101354.28;;;5.83;100.00
59787;BME280;45672;51.612;5.536;2023-12-20T10:06:27;101360.56;;;5.69;100.00
59787;BME280;45672;51.612;5.536;2023-12-20T10:08:52;101359.50;;;5.72;100.00
59787;BME280;45672;51.612;5.536;2023-12-20T10:11:18;101363.16;;;5.82;100.00
59787;BME280;45672;51.612;5.536;2023-12-20T10:13:47;101357.16;;;5.80;100.00
59787;BME280;45672;51.612;5.536;2023-12-20T10:16:13;101350.69;;;5.84;100.00
59787;BME280;45672;51.612;5.536;2023-12-20T10:18:39;101347.47;;;5.92;100.00
59787;BME280;45672;51.612;5.536;2023-12-20T10:21:04;101352.53;;;5.95;100.00
59787;BME280;45672;51.612;5.536;2023-12-20T10:23:31;101349.53;;;5.89;100.00
59787;BME280;45672;51.612;5.536;2023-12-20T10:25:58;101359.31;;;5.99;100.00
59787;BME280;45672;51.612;5.536;2023-12-20T10:28:23;101363.88;;;5.97;100.00
59787;BME280;45672;51.612;5.536;2023-12-20T10:30:53;101365.94;;;6.05;100.00
59787;BME280;45672;51.612;5.536;2023-12-20T10:33:26;101367.19;;;6.12;100.00
59787;BME280;45672;51.612;5.536;2023-12-20T10:35:52;101351.22;;;6.14;100.00
59787;BME280;45672;51.612;5.536;2023-12-20T10:38:18;101348.81;;;6.11;100.00
59787;BME280;45672;51.612;5.536;2023-12-20T10:40:45;101338.63;;;6.17;100.00
59787;BME280;45672;51.612;5.536;2023-12-20T10:43:11;101335.88;;;6.19;100.00
59787;BME280;45672;51.612;5.536;2023-12-20T10:45:37;101323.25;;;6.11;100.00
59787;BME280;45672;51.612;5.536;2023-12-20T10:48:03;101323.59;;;6.18;100.00
59787;BME280;45672;51.612;5.536;2023-12-20T10:50:29;101315.69;;;6.18;100.00
59787;BME280;45672;51.612;5.536;2023-12-20T10:52:55;101330.34;;;6.22;100.00
59787;BME280;45672;51.612;5.536;2023-12-20T10:55:24;101325.13;;;6.09;100.00
59787;BME280;45672;51.612;5.536;2023-12-20T10:57:51;101324.78;;;6.14;100.00
59787;BME280;45672;51.612;5.536;2023-12-20T11:00:18;101323.31;;;6.10;100.00
59787;BME280;45672;51.612;5.536;2023-12-20T11:02:43;101320.38;;;6.14;100.00
59787;BME280;45672;51.612;5.536;2023-12-20T11:05:23;101318.94;;;6.21;100.00
59787;BME280;45672;51.612;5.536;2023-12-20T11:10:51;101330.88;;;6.27;100.00
59787;BME280;45672;51.612;5.536;2023-12-20T11:13:30;101317.69;;;6.38;100.00
59787;BME280;45672;51.612;5.536;2023-12-20T11:15:57;101310.72;;;6.49;100.00
59787;BME280;45672;51.612;5.536;2023-12-20T11:18:29;101308.47;;;6.55;100.00
59787;BME280;45672;51.612;5.536;2023-12-20T11:20:55;101311.13;;;6.55;100.00
59787;BME280;45672;51.612;5.536;2023-12-20T11:23:25;101306.09;;;6.64;100.00
59787;BME280;45672;51.612;5.536;2023-12-20T11:25:56;101311.00;;;6.68;100.00
59787;BME280;45672;51.612;5.536;2023-12-20T11:28:24;101289.00;;;6.68;100.00
59787;BME280;45672;51.612;5.536;2023-12-20T11:30:54;101302.59;;;6.75;100.00
59787;BME280;45672;51.612;5.536;2023-12-20T11:33:36;101305.00;;;6.78;100.00
59787;BME280;45672;51.612;5.536;2023-12-20T11:36:03;101289.25;;;6.76;100.00
59787;BME280;45672;51.612;5.536;2023-12-20T11:38:38;101295.16;;;6.80;100.00
59787;BME280;45672;51.612;5.536;2023-12-20T11:41:06;101298.03;;;6.77;100.00
59787;BME280;45672;51.612;5.536;2023-12-20T11:43:35;101285.66;;;6.77;100.00
59787;BME280;45672;51.612;5.536;2023-12-20T11:46:04;101293.22;;;6.82;100.00
59787;BME280;45672;51.612;5.536;2023-12-20T11:48:31;101278.56;;;6.78;100.00
59787;BME280;45672;51.612;5.536;2023-12-20T11:50:57;101291.31;;;6.84;100.00
59787;BME280;45672;51.612;5.536;2023-12-20T11:53:22;101291.19;;;6.85;100.00
59787;BME280;45672;51.612;5.536;2023-12-20T11:55:49;101278.09;;;6.84;100.00
59787;BME280;45672;51.612;5.536;2023-12-20T11:58:14;101282.88;;;6.79;100.00
59787;BME280;45672;51.612;5.536;2023-12-20T12:00:44;101274.34;;;6.75;100.00
59787;BME280;45672;51.612;5.536;2023-12-20T12:03:09;101272.78;;;6.72;100.00
59787;BME280;45672;51.612;5.536;2023-12-20T12:05:35;101273.75;;;6.71;100.00
59787;BME280;45672;51.612;5.536;2023-12-20T12:08:02;101260.28;;;6.75;100.00
59787;BME280;45672;51.612;5.536;2023-12-20T12:10:28;101260.28;;;6.75;100.00
59787;BME280;45672;51.612;5.536;2023-12-20T12:12:54;101261.84;;;6.77;100.00
59787;BME280;45672;51.612;5.536;2023-12-20T12:15:19;101247.56;;;6.80;100.00
59787;BME280;45672;51.612;5.536;2023-12-20T12:17:52;101258.13;;;6.80;100.00
59787;BME280;45672;51.612;5.536;2023-12-20T12:20:19;101255.00;;;6.86;100.00
59787;BME280;45672;51.612;5.536;2023-12-20T12:22:45;101258.47;;;6.86;100.00
59787;BME280;45672;51.612;5.536;2023-12-20T12:25:13;101253.19;;;6.86;100.00
59787;BME280;45672;51.612;5.536;2023-12-20T12:27:40;101259.22;;;6.88;100.00
59787;BME280;45672;51.612;5.536;2023-12-20T12:30:06;101253.28;;;6.96;100.00
59787;BME280;45672;51.612;5.536;2023-12-20T12:32:35;101244.16;;;7.00;100.00
59787;BME280;45672;51.612;5.536;2023-12-20T12:35:03;101235.25;;;7.01;100.00
59787;BME280;45672;51.612;5.536;2023-12-20T12:37:29;101236.59;;;7.07;100.00
59787;BME280;45672;51.612;5.536;2023-12-20T12:39:54;101236.69;;;7.17;100.00
59787;BME280;45672;51.612;5.536;2023-12-20T12:42:20;101234.16;;;7.15;100.00
59787;BME280;45672;51.612;5.536;2023-12-20T12:44:46;101235.47;;;7.21;100.00
59787;BME280;45672;51.612;5.536;2023-12-20T12:47:12;101244.25;;;7.21;100.00
59787;BME280;45672;51.612;5.536;2023-12-20T12:49:37;101235.22;;;7.24;100.00